NFFN/NAN METAR and TAF weather

Enter ICAO airport designator
Station Type Date Time Source
NFFN METAR 2021/05/11 22:00 UTC NOAA

NFFN 112200Z 13012KT 9999 FEW030 SCT300 29/20 Q1014 NOSIG


Station Type Date Time Source
NFFN Decoded METAR 2021/05/11 22:00 UTC NOAA

Nandi, Fiji (NFFN) 17-45S 177-27E 18M
May 11, 2021 - 06:00 PM EDT / 2021.05.11 2200 UTC
Wind: from the SE (130 degrees) at 14 MPH (12 KT):0
Visibility: greater than 7 mile(s):0
Sky conditions: partly cloudy
Temperature: 84 F (29 C)
Dew Point: 68 F (20 C)
Relative Humidity: 58%
Pressure (altimeter): 29.94 in. Hg (1014 hPa)
ob: NFFN 112200Z 13012KT 9999 FEW030 SCT300 29/20 Q1014 NOSIG
cycle: 22

Station Type Date Time Source
NFFN TAF 2021/05/11 18:06 UTC NOAA

TAF TAF NFFN 111704Z 1118/1218 14005KT 9999 FEW030
BECMG 1121/1123 13012KT
BECMG 1205/1207 12005KT

Example: see airport list